sensor_id;sensor_type;location;lat;lon;timestamp;temperature;humidity
74224;SHT31;62585;49.706;18.216;2023-05-15T00:01:15;11.67;97.95
74224;SHT31;62585;49.706;18.216;2023-05-15T00:03:41;11.63;98.18
74224;SHT31;62585;49.706;18.216;2023-05-15T00:06:07;11.67;98.26
74224;SHT31;62585;49.706;18.216;2023-05-15T00:08:33;11.62;98.38
74224;SHT31;62585;49.706;18.216;2023-05-15T00:10:59;11.61;98.28
74224;SHT31;62585;49.706;18.216;2023-05-15T00:13:25;11.61;98.09
74224;SHT31;62585;49.706;18.216;2023-05-15T00:15:51;11.56;97.96
74224;SHT31;62585;49.706;18.216;2023-05-15T00:18:16;11.54;98.19
74224;SHT31;62585;49.706;18.216;2023-05-15T00:20:42;11.56;98.28
74224;SHT31;62585;49.706;18.216;2023-05-15T00:23:08;11.59;98.60
74224;SHT31;62585;49.706;18.216;2023-05-15T00:25:34;11.58;98.51
74224;SHT31;62585;49.706;18.216;2023-05-15T00:28:00;11.58;98.57
74224;SHT31;62585;49.706;18.216;2023-05-15T00:30:26;11.54;98.45
74224;SHT31;62585;49.706;18.216;2023-05-15T00:32:52;11.56;98.41
74224;SHT31;62585;49.706;18.216;2023-05-15T00:35:18;11.61;98.20
74224;SHT31;62585;49.706;18.216;2023-05-15T00:37:43;11.66;98.35
74224;SHT31;62585;49.706;18.216;2023-05-15T00:40:11;11.65;98.34
74224;SHT31;62585;49.706;18.216;2023-05-15T00:42:40;11.67;98.30
74224;SHT31;62585;49.706;18.216;2023-05-15T00:45:07;11.70;98.19
74224;SHT31;62585;49.706;18.216;2023-05-15T00:47:34;11.65;98.27
74224;SHT31;62585;49.706;18.216;2023-05-15T00:50:01;11.63;98.51
74224;SHT31;62585;49.706;18.216;2023-05-15T00:52:28;11.66;98.53
74224;SHT31;62585;49.706;18.216;2023-05-15T00:54:54;11.65;98.32
74224;SHT31;62585;49.706;18.216;2023-05-15T00:57:20;11.65;98.09
74224;SHT31;62585;49.706;18.216;2023-05-15T00:59:48;11.63;97.99
74224;SHT31;62585;49.706;18.216;2023-05-15T01:02:16;11.62;98.24
74224;SHT31;62585;49.706;18.216;2023-05-15T01:04:45;11.63;98.41
74224;SHT31;62585;49.706;18.216;2023-05-15T01:07:11;11.70;98.44
74224;SHT31;62585;49.706;18.216;2023-05-15T01:09:40;11.70;98.47
74224;SHT31;62585;49.706;18.216;2023-05-15T01:12:08;11.75;98.40
74224;SHT31;62585;49.706;18.216;2023-05-15T01:14:34;11.66;98.59
74224;SHT31;62585;49.706;18.216;2023-05-15T01:17:00;11.59;98.76
74224;SHT31;62585;49.706;18.216;2023-05-15T01:19:25;11.59;98.96
74224;SHT31;62585;49.706;18.216;2023-05-15T01:22:12;11.65;99.00
74224;SHT31;62585;49.706;18.216;2023-05-15T01:25:07;11.61;98.82
74224;SHT31;62585;49.706;18.216;2023-05-15T01:27:48;11.61;98.66
74224;SHT31;62585;49.706;18.216;2023-05-15T01:30:24;11.65;98.76
74224;SHT31;62585;49.706;18.216;2023-05-15T01:35:43;11.75;98.77
74224;SHT31;62585;49.706;18.216;2023-05-15T01:38:52;11.72;98.67
74224;SHT31;62585;49.706;18.216;2023-05-15T01:41:07;11.75;98.98
74224;SHT31;62585;49.706;18.216;2023-05-15T01:43:38;11.75;98.88
74224;SHT31;62585;49.706;18.216;2023-05-15T01:46:07;11.79;98.80
74224;SHT31;62585;49.706;18.216;2023-05-15T01:48:33;11.75;98.73
74224;SHT31;62585;49.706;18.216;2023-05-15T01:51:02;11.72;98.73
74224;SHT31;62585;49.706;18.216;2023-05-15T01:53:32;11.76;98.87
74224;SHT31;62585;49.706;18.216;2023-05-15T01:56:00;11.67;98.85
74224;SHT31;62585;49.706;18.216;2023-05-15T01:58:28;11.67;98.92
74224;SHT31;62585;49.706;18.216;2023-05-15T02:00:55;11.67;99.12
74224;SHT31;62585;49.706;18.216;2023-05-15T02:03:21;11.67;99.16
74224;SHT31;62585;49.706;18.216;2023-05-15T02:05:48;11.69;99.35
74224;SHT31;62585;49.706;18.216;2023-05-15T02:08:15;11.70;99.46
74224;SHT31;62585;49.706;18.216;2023-05-15T02:13:16;11.62;99.20
74224;SHT31;62585;49.706;18.216;2023-05-15T02:15:42;11.66;99.41
74224;SHT31;62585;49.706;18.216;2023-05-15T02:18:08;11.70;99.33
74224;SHT31;62585;49.706;18.216;2023-05-15T02:20:34;11.70;99.16
74224;SHT31;62585;49.706;18.216;2023-05-15T02:23:00;11.69;99.08
74224;SHT31;62585;49.706;18.216;2023-05-15T02:25:41;11.63;99.01
74224;SHT31;62585;49.706;18.216;2023-05-15T02:28:17;11.67;99.21
74224;SHT31;62585;49.706;18.216;2023-05-15T02:30:54;11.70;99.09
74224;SHT31;62585;49.706;18.216;2023-05-15T02:33:34;11.72;98.91
74224;SHT31;62585;49.706;18.216;2023-05-15T02:36:05;11.66;98.84
74224;SHT31;62585;49.706;18.216;2023-05-15T02:38:39;11.67;98.90
74224;SHT31;62585;49.706;18.216;2023-05-15T02:41:08;11.66;99.10
74224;SHT31;62585;49.706;18.216;2023-05-15T02:43:35;11.67;99.00
74224;SHT31;62585;49.706;18.216;2023-05-15T02:46:02;11.69;98.92
74224;SHT31;62585;49.706;18.216;2023-05-15T02:48:28;11.70;98.70
74224;SHT31;62585;49.706;18.216;2023-05-15T02:50:54;11.72;98.67
74224;SHT31;62585;49.706;18.216;2023-05-15T02:53:20;11.67;98.83
74224;SHT31;62585;49.706;18.216;2023-05-15T02:55:46;11.65;98.91
74224;SHT31;62585;49.706;18.216;2023-05-15T02:58:12;11.63;99.12
74224;SHT31;62585;49.706;18.216;2023-05-15T03:00:38;11.65;99.32
74224;SHT31;62585;49.706;18.216;2023-05-15T03:03:04;11.63;99.42
74224;SHT31;62585;49.706;18.216;2023-05-15T03:05:29;11.65;99.35
74224;SHT31;62585;49.706;18.216;2023-05-15T03:07:56;11.70;99.16
74224;SHT31;62585;49.706;18.216;2023-05-15T03:10:22;11.76;98.93
74224;SHT31;62585;49.706;18.216;2023-05-15T03:12:48;11.75;98.77
74224;SHT31;62585;49.706;18.216;2023-05-15T03:15:14;11.76;98.76
74224;SHT31;62585;49.706;18.216;2023-05-15T03:17:40;11.75;98.65
74224;SHT31;62585;49.706;18.216;2023-05-15T03:20:06;11.77;98.75
74224;SHT31;62585;49.706;18.216;2023-05-15T03:22:33;11.73;98.59
74224;SHT31;62585;49.706;18.216;2023-05-15T03:24:59;11.73;98.32
74224;SHT31;62585;49.706;18.216;2023-05-15T03:27:26;11.77;98.47
74224;SHT31;62585;49.706;18.216;2023-05-15T03:29:52;11.77;98.34
74224;SHT31;62585;49.706;18.216;2023-05-15T03:32:18;11.80;98.33
74224;SHT31;62585;49.706;18.216;2023-05-15T03:34:44;11.79;98.46
74224;SHT31;62585;49.706;18.216;2023-05-15T03:37:09;11.75;98.75
74224;SHT31;62585;49.706;18.216;2023-05-15T03:39:35;11.73;98.86
74224;SHT31;62585;49.706;18.216;2023-05-15T03:42:01;11.79;99.25
74224;SHT31;62585;49.706;18.216;2023-05-15T03:44:27;11.79;99.19
74224;SHT31;62585;49.706;18.216;2023-05-15T03:46:53;11.84;99.07
74224;SHT31;62585;49.706;18.216;2023-05-15T03:49:19;11.80;98.98
74224;SHT31;62585;49.706;18.216;2023-05-15T03:51:45;11.83;98.95
74224;SHT31;62585;49.706;18.216;2023-05-15T03:54:11;11.79;98.71
74224;SHT31;62585;49.706;18.216;2023-05-15T03:56:36;11.80;98.92
74224;SHT31;62585;49.706;18.216;2023-05-15T03:59:02;11.79;98.96
74224;SHT31;62585;49.706;18.216;2023-05-15T04:01:28;11.76;98.89
74224;SHT31;62585;49.706;18.216;2023-05-15T04:03:54;11.76;98.60
74224;SHT31;62585;49.706;18.216;2023-05-15T04:06:19;11.72;98.66
74224;SHT31;62585;49.706;18.216;2023-05-15T04:08:45;11.73;98.93
74224;SHT31;62585;49.706;18.216;2023-05-15T04:11:11;11.73;99.00
74224;SHT31;62585;49.706;18.216;2023-05-15T04:13:37;11.69;98.89
74224;SHT31;62585;49.706;18.216;2023-05-15T04:16:03;11.72;98.80
74224;SHT31;62585;49.706;18.216;2023-05-15T04:18:29;11.69;98.68
74224;SHT31;62585;49.706;18.216;2023-05-15T04:20:54;11.72;98.67
74224;SHT31;62585;49.706;18.216;2023-05-15T04:23:20;11.75;98.82
74224;SHT31;62585;49.706;18.216;2023-05-15T04:25:46;11.75;98.54
74224;SHT31;62585;49.706;18.216;2023-05-15T04:28:13;11.75;98.71
74224;SHT31;62585;49.706;18.216;2023-05-15T04:30:39;11.77;98.77
74224;SHT31;62585;49.706;18.216;2023-05-15T04:33:05;11.89;98.77
74224;SHT31;62585;49.706;18.216;2023-05-15T04:35:31;11.84;98.66
74224;SHT31;62585;49.706;18.216;2023-05-15T04:37:57;11.84;98.70
74224;SHT31;62585;49.706;18.216;2023-05-15T04:40:22;11.87;98.03
74224;SHT31;62585;49.706;18.216;2023-05-15T04:42:48;11.87;98.24
74224;SHT31;62585;49.706;18.216;2023-05-15T04:45:14;11.89;98.15
74224;SHT31;62585;49.706;18.216;2023-05-15T04:47:40;11.96;97.77
74224;SHT31;62585;49.706;18.216;2023-05-15T04:50:06;12.00;97.69
74224;SHT31;62585;49.706;18.216;2023-05-15T04:52:32;12.04;97.50
74224;SHT31;62585;49.706;18.216;2023-05-15T04:54:58;11.98;97.74
74224;SHT31;62585;49.706;18.216;2023-05-15T04:57:24;12.08;97.79
74224;SHT31;62585;49.706;18.216;2023-05-15T04:59:50;12.08;97.48
74224;SHT31;62585;49.706;18.216;2023-05-15T05:02:19;12.10;97.62
74224;SHT31;62585;49.706;18.216;2023-05-15T05:04:46;12.13;97.86
74224;SHT31;62585;49.706;18.216;2023-05-15T05:07:12;12.21;97.47
74224;SHT31;62585;49.706;18.216;2023-05-15T05:09:38;12.18;97.16
74224;SHT31;62585;49.706;18.216;2023-05-15T05:12:07;12.21;97.00
74224;SHT31;62585;49.706;18.216;2023-05-15T05:14:34;12.24;96.68
74224;SHT31;62585;49.706;18.216;2023-05-15T05:16:59;12.20;96.50
74224;SHT31;62585;49.706;18.216;2023-05-15T05:19:25;12.27;96.14
74224;SHT31;62585;49.706;18.216;2023-05-15T05:21:53;12.30;95.96
74224;SHT31;62585;49.706;18.216;2023-05-15T05:24:19;12.23;96.36
74224;SHT31;62585;49.706;18.216;2023-05-15T05:26:45;12.27;96.29
74224;SHT31;62585;49.706;18.216;2023-05-15T05:29:10;12.25;95.83
74224;SHT31;62585;49.706;18.216;2023-05-15T05:31:37;12.27;95.55
74224;SHT31;62585;49.706;18.216;2023-05-15T05:34:02;12.13;95.33
74224;SHT31;62585;49.706;18.216;2023-05-15T05:36:28;12.17;96.06
74224;SHT31;62585;49.706;18.216;2023-05-15T05:38:54;12.20;95.68
74224;SHT31;62585;49.706;18.216;2023-05-15T05:41:20;12.23;95.29
74224;SHT31;62585;49.706;18.216;2023-05-15T05:43:46;12.20;95.34
74224;SHT31;62585;49.706;18.216;2023-05-15T05:46:12;12.25;96.11
74224;SHT31;62585;49.706;18.216;2023-05-15T05:48:37;12.25;96.06
74224;SHT31;62585;49.706;18.216;2023-05-15T05:51:03;12.16;95.62
74224;SHT31;62585;49.706;18.216;2023-05-15T05:53:29;12.21;95.84
74224;SHT31;62585;49.706;18.216;2023-05-15T05:55:55;12.20;95.87
74224;SHT31;62585;49.706;18.216;2023-05-15T05:58:21;12.25;95.65
74224;SHT31;62585;49.706;18.216;2023-05-15T06:00:47;12.25;95.72
74224;SHT31;62585;49.706;18.216;2023-05-15T06:03:12;12.30;96.13
74224;SHT31;62585;49.706;18.216;2023-05-15T06:05:38;12.27;96.18
74224;SHT31;62585;49.706;18.216;2023-05-15T06:08:04;12.31;96.16
74224;SHT31;62585;49.706;18.216;2023-05-15T06:10:31;12.24;95.76
74224;SHT31;62585;49.706;18.216;2023-05-15T06:12:56;12.27;95.39
74224;SHT31;62585;49.706;18.216;2023-05-15T06:15:22;12.28;94.92
74224;SHT31;62585;49.706;18.216;2023-05-15T06:17:48;12.25;94.79
74224;SHT31;62585;49.706;18.216;2023-05-15T06:20:14;12.16;95.09
74224;SHT31;62585;49.706;18.216;2023-05-15T06:22:40;12.14;94.97
74224;SHT31;62585;49.706;18.216;2023-05-15T06:25:06;12.20;95.36
74224;SHT31;62585;49.706;18.216;2023-05-15T06:27:33;12.17;95.64
74224;SHT31;62585;49.706;18.216;2023-05-15T06:29:59;12.16;95.92
74224;SHT31;62585;49.706;18.216;2023-05-15T06:32:24;12.23;96.01
74224;SHT31;62585;49.706;18.216;2023-05-15T06:34:50;12.13;96.16
74224;SHT31;62585;49.706;18.216;2023-05-15T06:37:16;12.07;96.67
74224;SHT31;62585;49.706;18.216;2023-05-15T06:39:42;12.17;97.10
74224;SHT31;62585;49.706;18.216;2023-05-15T06:42:07;12.18;97.35
74224;SHT31;62585;49.706;18.216;2023-05-15T06:44:34;12.18;97.08
74224;SHT31;62585;49.706;18.216;2023-05-15T06:47:00;12.23;96.88
74224;SHT31;62585;49.706;18.216;2023-05-15T06:49:26;12.24;96.38
74224;SHT31;62585;49.706;18.216;2023-05-15T06:51:52;12.34;96.49
74224;SHT31;62585;49.706;18.216;2023-05-15T06:54:19;12.31;96.05
74224;SHT31;62585;49.706;18.216;2023-05-15T06:56:45;12.40;95.39
74224;SHT31;62585;49.706;18.216;2023-05-15T06:59:11;12.38;95.70
74224;SHT31;62585;49.706;18.216;2023-05-15T07:01:37;12.38;95.72
74224;SHT31;62585;49.706;18.216;2023-05-15T07:04:03;12.41;95.96
74224;SHT31;62585;49.706;18.216;2023-05-15T07:06:29;12.46;96.24
74224;SHT31;62585;49.706;18.216;2023-05-15T07:08:59;12.48;96.25
74224;SHT31;62585;49.706;18.216;2023-05-15T07:11:25;12.44;95.93
74224;SHT31;62585;49.706;18.216;2023-05-15T07:13:52;12.40;95.71
74224;SHT31;62585;49.706;18.216;2023-05-15T07:16:18;12.40;96.29
74224;SHT31;62585;49.706;18.216;2023-05-15T07:18:44;12.40;97.05
74224;SHT31;62585;49.706;18.216;2023-05-15T07:21:09;12.35;96.68
74224;SHT31;62585;49.706;18.216;2023-05-15T07:23:35;12.42;97.39
74224;SHT31;62585;49.706;18.216;2023-05-15T07:26:01;12.41;96.10
74224;SHT31;62585;49.706;18.216;2023-05-15T07:28:27;12.41;96.70
74224;SHT31;62585;49.706;18.216;2023-05-15T07:30:52;12.40;96.24
74224;SHT31;62585;49.706;18.216;2023-05-15T07:33:18;12.38;96.36
74224;SHT31;62585;49.706;18.216;2023-05-15T07:35:44;12.38;96.38
74224;SHT31;62585;49.706;18.216;2023-05-15T07:38:10;12.42;97.05
74224;SHT31;62585;49.706;18.216;2023-05-15T07:40:35;12.35;96.89
74224;SHT31;62585;49.706;18.216;2023-05-15T07:43:01;12.37;97.22
74224;SHT31;62585;49.706;18.216;2023-05-15T07:45:27;12.38;96.59
74224;SHT31;62585;49.706;18.216;2023-05-15T07:47:53;12.40;97.40
74224;SHT31;62585;49.706;18.216;2023-05-15T07:50:19;12.37;96.90
74224;SHT31;62585;49.706;18.216;2023-05-15T07:52:45;12.48;97.00
74224;SHT31;62585;49.706;18.216;2023-05-15T07:55:11;12.58;96.69
74224;SHT31;62585;49.706;18.216;2023-05-15T07:57:37;12.55;96.56
74224;SHT31;62585;49.706;18.216;2023-05-15T08:00:05;12.63;96.76
74224;SHT31;62585;49.706;18.216;2023-05-15T08:02:35;12.56;96.54
74224;SHT31;62585;49.706;18.216;2023-05-15T08:05:01;12.65;96.87
74224;SHT31;62585;49.706;18.216;2023-05-15T08:07:30;12.75;96.68
74224;SHT31;62585;49.706;18.216;2023-05-15T08:09:56;12.69;96.24
74224;SHT31;62585;49.706;18.216;2023-05-15T08:12:22;12.65;96.17
74224;SHT31;62585;49.706;18.216;2023-05-15T08:14:48;12.72;96.55
74224;SHT31;62585;49.706;18.216;2023-05-15T08:17:14;12.90;96.59
74224;SHT31;62585;49.706;18.216;2023-05-15T08:19:40;12.97;96.30
74224;SHT31;62585;49.706;18.216;2023-05-15T08:22:06;13.06;95.62
74224;SHT31;62585;49.706;18.216;2023-05-15T08:24:32;13.11;95.57
74224;SHT31;62585;49.706;18.216;2023-05-15T08:26:58;13.26;96.04
74224;SHT31;62585;49.706;18.216;2023-05-15T08:29:24;13.34;95.34
74224;SHT31;62585;49.706;18.216;2023-05-15T08:31:51;13.40;93.99
74224;SHT31;62585;49.706;18.216;2023-05-15T08:34:17;13.43;93.28
74224;SHT31;62585;49.706;18.216;2023-05-15T08:36:43;13.57;93.64
74224;SHT31;62585;49.706;18.216;2023-05-15T08:39:09;13.53;93.16
74224;SHT31;62585;49.706;18.216;2023-05-15T08:41:55;13.72;94.37
74224;SHT31;62585;49.706;18.216;2023-05-15T08:44:22;13.92;93.04
74224;SHT31;62585;49.706;18.216;2023-05-15T08:46:49;13.90;93.21
74224;SHT31;62585;49.706;18.216;2023-05-15T08:52:10;13.96;91.31
74224;SHT31;62585;49.706;18.216;2023-05-15T08:54:38;13.72;90.95
74224;SHT31;62585;49.706;18.216;2023-05-15T08:57:04;13.82;93.00
74224;SHT31;62585;49.706;18.216;2023-05-15T08:59:30;13.78;92.73
74224;SHT31;62585;49.706;18.216;2023-05-15T09:01:56;13.81;92.47
74224;SHT31;62585;49.706;18.216;2023-05-15T09:04:22;13.65;92.47
74224;SHT31;62585;49.706;18.216;2023-05-15T09:06:48;13.53;92.49
74224;SHT31;62585;49.706;18.216;2023-05-15T09:09:14;13.54;93.12
74224;SHT31;62585;49.706;18.216;2023-05-15T09:11:44;13.64;92.76
74224;SHT31;62585;49.706;18.216;2023-05-15T09:14:11;13.69;91.23
74224;SHT31;62585;49.706;18.216;2023-05-15T09:16:41;13.87;92.15
74224;SHT31;62585;49.706;18.216;2023-05-15T09:19:07;14.29;90.11
74224;SHT31;62585;49.706;18.216;2023-05-15T09:21:34;14.57;90.09
74224;SHT31;62585;49.706;18.216;2023-05-15T09:24:19;14.61;91.26
74224;SHT31;62585;49.706;18.216;2023-05-15T09:27:03;14.36;89.04
74224;SHT31;62585;49.706;18.216;2023-05-15T09:29:30;14.30;89.90
74224;SHT31;62585;49.706;18.216;2023-05-15T09:32:01;14.24;89.94
74224;SHT31;62585;49.706;18.216;2023-05-15T09:34:28;14.32;89.52
74224;SHT31;62585;49.706;18.216;2023-05-15T09:36:55;14.33;89.72
74224;SHT31;62585;49.706;18.216;2023-05-15T09:39:23;14.22;88.76
74224;SHT31;62585;49.706;18.216;2023-05-15T09:41:50;14.26;89.08
74224;SHT31;62585;49.706;18.216;2023-05-15T09:44:25;14.34;88.68
74224;SHT31;62585;49.706;18.216;2023-05-15T09:46:52;14.37;89.41
74224;SHT31;62585;49.706;18.216;2023-05-15T09:49:20;14.44;89.87
74224;SHT31;62585;49.706;18.216;2023-05-15T09:51:47;14.05;88.42
74224;SHT31;62585;49.706;18.216;2023-05-15T09:54:14;13.87;89.07
74224;SHT31;62585;49.706;18.216;2023-05-15T09:56:43;13.89;89.57
74224;SHT31;62585;49.706;18.216;2023-05-15T09:59:12;13.93;89.97
74224;SHT31;62585;49.706;18.216;2023-05-15T10:01:41;14.01;90.03
74224;SHT31;62585;49.706;18.216;2023-05-15T10:04:08;14.09;88.99
74224;SHT31;62585;49.706;18.216;2023-05-15T10:06:34;14.41;89.24
74224;SHT31;62585;49.706;18.216;2023-05-15T10:09:01;14.59;86.17
74224;SHT31;62585;49.706;18.216;2023-05-15T10:11:37;14.68;88.26
74224;SHT31;62585;49.706;18.216;2023-05-15T10:14:08;14.99;87.98
74224;SHT31;62585;49.706;18.216;2023-05-15T10:16:36;14.89;87.27
74224;SHT31;62585;49.706;18.216;2023-05-15T10:19:04;14.74;87.17
74224;SHT31;62585;49.706;18.216;2023-05-15T10:21:33;14.81;87.34
74224;SHT31;62585;49.706;18.216;2023-05-15T10:24:00;14.88;85.49
74224;SHT31;62585;49.706;18.216;2023-05-15T10:26:39;15.23;84.94
74224;SHT31;62585;49.706;18.216;2023-05-15T10:29:12;15.22;81.48
74224;SHT31;62585;49.706;18.216;2023-05-15T10:31:39;15.46;83.60
74224;SHT31;62585;49.706;18.216;2023-05-15T10:34:05;15.98;82.30
74224;SHT31;62585;49.706;18.216;2023-05-15T10:36:33;15.68;78.17
74224;SHT31;62585;49.706;18.216;2023-05-15T10:38:59;15.44;79.06
74224;SHT31;62585;49.706;18.216;2023-05-15T10:41:26;15.64;81.17
74224;SHT31;62585;49.706;18.216;2023-05-15T10:43:52;15.64;79.55
74224;SHT31;62585;49.706;18.216;2023-05-15T10:46:20;15.70;78.77
74224;SHT31;62585;49.706;18.216;2023-05-15T10:48:46;15.46;78.84
74224;SHT31;62585;49.706;18.216;2023-05-15T10:51:16;15.40;80.03
74224;SHT31;62585;49.706;18.216;2023-05-15T10:53:43;15.46;81.88
74224;SHT31;62585;49.706;18.216;2023-05-15T10:56:13;15.39;80.54
74224;SHT31;62585;49.706;18.216;2023-05-15T10:58:45;15.54;81.44
74224;SHT31;62585;49.706;18.216;2023-05-15T11:04:25;16.23;78.70
74224;SHT31;62585;49.706;18.216;2023-05-15T11:07:11;16.60;76.80
74224;SHT31;62585;49.706;18.216;2023-05-15T11:09:38;16.29;77.31
74224;SHT31;62585;49.706;18.216;2023-05-15T11:12:09;16.14;77.40
74224;SHT31;62585;49.706;18.216;2023-05-15T11:14:41;15.83;77.78
74224;SHT31;62585;49.706;18.216;2023-05-15T11:17:09;15.81;78.95
74224;SHT31;62585;49.706;18.216;2023-05-15T11:27:29;17.65;73.71
74224;SHT31;62585;49.706;18.216;2023-05-15T11:30:07;17.86;73.60
74224;SHT31;62585;49.706;18.216;2023-05-15T11:35:25;16.85;75.36
74224;SHT31;62585;49.706;18.216;2023-05-15T11:37:54;16.36;78.15
74224;SHT31;62585;49.706;18.216;2023-05-15T11:40:22;16.32;79.55
74224;SHT31;62585;49.706;18.216;2023-05-15T11:43:16;16.63;78.50
74224;SHT31;62585;49.706;18.216;2023-05-15T11:45:45;17.08;75.36
74224;SHT31;62585;49.706;18.216;2023-05-15T11:48:12;17.06;75.00
74224;SHT31;62585;49.706;18.216;2023-05-15T11:50:40;17.00;74.83
74224;SHT31;62585;49.706;18.216;2023-05-15T11:53:08;16.32;74.38
74224;SHT31;62585;49.706;18.216;2023-05-15T11:55:36;16.16;76.45
74224;SHT31;62585;49.706;18.216;2023-05-15T11:58:03;15.88;77.01
74224;SHT31;62585;49.706;18.216;2023-05-15T12:00:29;15.87;77.06
74224;SHT31;62585;49.706;18.216;2023-05-15T12:02:56;15.85;77.05
74224;SHT31;62585;49.706;18.216;2023-05-15T12:05:22;15.70;77.36
74224;SHT31;62585;49.706;18.216;2023-05-15T12:07:48;15.74;76.61
74224;SHT31;62585;49.706;18.216;2023-05-15T12:10:13;15.94;77.88
74224;SHT31;62585;49.706;18.216;2023-05-15T12:12:44;15.88;76.67
74224;SHT31;62585;49.706;18.216;2023-05-15T12:15:13;15.95;73.80
74224;SHT31;62585;49.706;18.216;2023-05-15T12:17:41;16.09;72.54
74224;SHT31;62585;49.706;18.216;2023-05-15T12:20:16;16.61;72.10
74224;SHT31;62585;49.706;18.216;2023-05-15T12:22:43;16.73;69.95
74224;SHT31;62585;49.706;18.216;2023-05-15T12:25:10;17.17;71.49
74224;SHT31;62585;49.706;18.216;2023-05-15T12:27:38;17.08;70.32
74224;SHT31;62585;49.706;18.216;2023-05-15T12:30:05;16.85;70.89
74224;SHT31;62585;49.706;18.216;2023-05-15T12:32:34;16.63;70.53
74224;SHT31;62585;49.706;18.216;2023-05-15T12:35:01;16.52;71.22
74224;SHT31;62585;49.706;18.216;2023-05-15T12:37:30;16.56;71.12
74224;SHT31;62585;49.706;18.216;2023-05-15T12:40:05;16.34;71.59
74224;SHT31;62585;49.706;18.216;2023-05-15T12:42:41;16.25;71.92
74224;SHT31;62585;49.706;18.216;2023-05-15T12:45:25;16.01;72.66
74224;SHT31;62585;49.706;18.216;2023-05-15T12:47:51;15.91;72.92
74224;SHT31;62585;49.706;18.216;2023-05-15T12:50:21;16.04;74.59
74224;SHT31;62585;49.706;18.216;2023-05-15T12:52:53;15.88;72.65
74224;SHT31;62585;49.706;18.216;2023-05-15T12:57:52;15.70;73.50
74224;SHT31;62585;49.706;18.216;2023-05-15T13:00:21;16.14;72.19
74224;SHT31;62585;49.706;18.216;2023-05-15T13:02:52;16.00;71.48
74224;SHT31;62585;49.706;18.216;2023-05-15T13:05:19;15.98;71.56
74224;SHT31;62585;49.706;18.216;2023-05-15T13:07:47;15.95;72.77
74224;SHT31;62585;49.706;18.216;2023-05-15T13:10:13;16.22;73.19
74224;SHT31;62585;49.706;18.216;2023-05-15T13:12:44;16.55;73.64
74224;SHT31;62585;49.706;18.216;2023-05-15T13:17:53;16.87;71.47
74224;SHT31;62585;49.706;18.216;2023-05-15T13:20:21;16.79;70.98
74224;SHT31;62585;49.706;18.216;2023-05-15T13:22:47;16.63;71.62
74224;SHT31;62585;49.706;18.216;2023-05-15T13:25:16;16.48;71.20
74224;SHT31;62585;49.706;18.216;2023-05-15T13:27:43;16.23;71.32
74224;SHT31;62585;49.706;18.216;2023-05-15T13:30:09;16.43;72.73
74224;SHT31;62585;49.706;18.216;2023-05-15T13:32:42;16.34;69.67
74224;SHT31;62585;49.706;18.216;2023-05-15T13:35:13;16.28;70.45
74224;SHT31;62585;49.706;18.216;2023-05-15T13:37:42;16.33;71.13
74224;SHT31;62585;49.706;18.216;2023-05-15T13:40:09;16.30;72.34
74224;SHT31;62585;49.706;18.216;2023-05-15T13:42:36;16.19;70.56
74224;SHT31;62585;49.706;18.216;2023-05-15T13:45:03;16.00;70.50
74224;SHT31;62585;49.706;18.216;2023-05-15T13:47:29;15.90;70.42
74224;SHT31;62585;49.706;18.216;2023-05-15T13:49:55;15.70;71.57
74224;SHT31;62585;49.706;18.216;2023-05-15T13:52:21;15.64;72.59
74224;SHT31;62585;49.706;18.216;2023-05-15T13:54:46;15.68;72.64
74224;SHT31;62585;49.706;18.216;2023-05-15T13:57:12;15.67;72.79
74224;SHT31;62585;49.706;18.216;2023-05-15T13:59:38;15.81;71.87
74224;SHT31;62585;49.706;18.216;2023-05-15T14:02:04;15.91;71.03
74224;SHT31;62585;49.706;18.216;2023-05-15T14:04:29;15.95;68.94
74224;SHT31;62585;49.706;18.216;2023-05-15T14:06:55;15.93;69.83
74224;SHT31;62585;49.706;18.216;2023-05-15T14:09:22;15.73;70.15
74224;SHT31;62585;49.706;18.216;2023-05-15T14:11:48;15.66;71.42
74224;SHT31;62585;49.706;18.216;2023-05-15T14:14:13;15.57;71.67
74224;SHT31;62585;49.706;18.216;2023-05-15T14:16:39;15.50;72.42
74224;SHT31;62585;49.706;18.216;2023-05-15T14:19:05;15.54;72.46
74224;SHT31;62585;49.706;18.216;2023-05-15T14:21:31;15.42;72.96
74224;SHT31;62585;49.706;18.216;2023-05-15T14:23:56;15.68;73.75
74224;SHT31;62585;49.706;18.216;2023-05-15T14:26:22;16.36;71.67
74224;SHT31;62585;49.706;18.216;2023-05-15T14:28:48;16.55;68.83
74224;SHT31;62585;49.706;18.216;2023-05-15T14:31:14;16.23;71.16
74224;SHT31;62585;49.706;18.216;2023-05-15T14:33:39;16.15;72.00
74224;SHT31;62585;49.706;18.216;2023-05-15T14:36:06;16.04;72.32
74224;SHT31;62585;49.706;18.216;2023-05-15T14:38:32;15.90;72.86
74224;SHT31;62585;49.706;18.216;2023-05-15T14:40:57;15.74;73.46
74224;SHT31;62585;49.706;18.216;2023-05-15T14:43:23;15.74;73.38
74224;SHT31;62585;49.706;18.216;2023-05-15T14:45:52;15.81;73.31
74224;SHT31;62585;49.706;18.216;2023-05-15T14:48:18;15.78;72.51
74224;SHT31;62585;49.706;18.216;2023-05-15T14:50:44;15.68;72.13
74224;SHT31;62585;49.706;18.216;2023-05-15T14:53:09;15.77;72.86
74224;SHT31;62585;49.706;18.216;2023-05-15T14:55:35;15.67;71.83
74224;SHT31;62585;49.706;18.216;2023-05-15T14:58:01;15.71;71.82
74224;SHT31;62585;49.706;18.216;2023-05-15T15:00:27;15.81;72.16
74224;SHT31;62585;49.706;18.216;2023-05-15T15:02:53;15.71;71.77
74224;SHT31;62585;49.706;18.216;2023-05-15T15:05:18;15.68;71.33
74224;SHT31;62585;49.706;18.216;2023-05-15T15:08:04;15.66;71.87
74224;SHT31;62585;49.706;18.216;2023-05-15T15:10:32;15.66;71.85
74224;SHT31;62585;49.706;18.216;2023-05-15T15:12:58;15.57;71.16
74224;SHT31;62585;49.706;18.216;2023-05-15T15:15:24;15.50;71.24
74224;SHT31;62585;49.706;18.216;2023-05-15T15:17:50;15.54;72.07
74224;SHT31;62585;49.706;18.216;2023-05-15T15:20:18;15.64;72.71
74224;SHT31;62585;49.706;18.216;2023-05-15T15:22:47;15.75;72.73
74224;SHT31;62585;49.706;18.216;2023-05-15T15:25:13;15.70;71.73
74224;SHT31;62585;49.706;18.216;2023-05-15T15:27:39;15.88;72.97
74224;SHT31;62585;49.706;18.216;2023-05-15T15:30:06;15.80;72.40
74224;SHT31;62585;49.706;18.216;2023-05-15T15:32:33;15.57;72.65
74224;SHT31;62585;49.706;18.216;2023-05-15T15:34:59;15.49;73.76
74224;SHT31;62585;49.706;18.216;2023-05-15T15:37:27;15.49;73.46
74224;SHT31;62585;49.706;18.216;2023-05-15T15:39:54;15.39;73.51
74224;SHT31;62585;49.706;18.216;2023-05-15T15:42:20;15.22;74.42
74224;SHT31;62585;49.706;18.216;2023-05-15T15:44:46;15.13;75.17